x

Stennis Test Facility (ostf1) Weather Station

7:50am - Fri 26th May 2017 All times are CDT. -5 hours from GMT.

  • Wind
    4mph, 7mph gusts
  • Air Temp 73°f
  • Sea Pressure 1016.2mb
  • Stennis Test Facility
  • Stennis Test Facility

More Historic Weather Station data

Upgrade to MSW Pro to gain access to the past 30 days of data for over 8000 Wavebouys and Weather Stations around the globe.

Join Pro

Comparision Forecast

View Surf forecast
   
Fri 05/26 7:50am 4 7 mph 1016.2mb 73f
6:50am  -  0 mph 1015.9mb 64f
5:50am  -  0 mph 1015.1mb 64f
4:50am  -  0 mph 1014.5mb 64f
3:50am  -  2 mph 1014.2mb 66f
2:50am  -  0 mph 1014.1mb 67f
1:50am 2 4 mph 1014.1mb 69f
12:50am  -  2 mph 1014.1mb 68f
Thu 05/25 11:50pm  -  0 mph 1014.1mb 67f
10:50pm  -  0 mph 1014.2mb 67f
9:50pm  -  0 mph 1013.4mb 68f
8:50pm  -  0 mph 1012.7mb 69f
7:50pm  -  0 mph 1012.2mb 73f
6:50pm 2 4 mph 1011.9mb 80f
5:50pm 4 11 mph 1011.6mb 81f
4:50pm 4 7 mph 1011.6mb 82f
3:50pm 4 7 mph 1011.8mb 81f
2:50pm 7 11 mph 1012.3mb 80f
1:50pm 4 13 mph 1012.8mb 79f
12:50pm 4 9 mph 1013.1mb 77f
11:50am 4 7 mph 1013.4mb 76f
10:50am 4 9 mph 1013.5mb 74f
9:50am 4 9 mph 1013.1mb 71f
8:50am 2 4 mph 1012.5mb 68f
7:50am  -  2 mph 1011.9mb 63f
6:50am  -  0 mph 1011.5mb 55f
5:50am  -  0 mph 1010.6mb 55f
4:50am  -  0 mph 1010.1mb 55f
3:50am  -  0 mph 1009.7mb 55f
2:50am  -  0 mph 1009.3mb 56f
1:50am  -  0 mph 1009.1mb 56f
12:50am  -  0 mph 1008.8mb 58f
Wed 05/24 11:50pm  -  0 mph 1008.6mb 59f
10:50pm  -  0 mph 1008.3mb 60f
9:50pm  -  0 mph 1007.3mb 62f
8:50pm  -  0 mph 1006.4mb 64f
7:50pm  -  2 mph 1005.7mb 69f
6:50pm 4 11 mph 1005.3mb 74f
5:50pm 9 16 mph 1005.2mb 75f
4:50pm 7 13 mph 1004.9mb 75f
3:50pm 7 13 mph 1005mb 76f
2:50pm 7 13 mph 1005.2mb 76f
1:50pm 7 16 mph 1006mb 75f
11:50am 9 13 mph 1006mb 72f
10:50am 7 16 mph 1005.9mb 71f
9:50am 7 13 mph 1005.2mb 70f
8:50am 7 11 mph 1004.9mb 68f
7:50am 4 9 mph 1004.6mb 67f
6:50am 4 9 mph 1004.4mb 68f
5:50am 7 13 mph 1004mb 68f
4:50am 2 4 mph 1004.5mb 69f
3:50am 2 4 mph 1005.8mb 69f
2:50am 2 7 mph 1005.7mb 69f
1:50am 2 7 mph 1006.6mb 70f
12:50am  -  2 mph 1006.9mb 71f
Tue 05/23 11:50pm  -  0 mph 1007.1mb 71f
10:50pm 2 4 mph 1007.7mb 74f
9:50pm  -  0 mph 1007mb 72f
8:50pm  -  4 mph 1006mb 75f
7:50pm  -  2 mph 1005.9mb 78f
6:50pm 4 7 mph 1005.7mb 81f
5:50pm 4 11 mph 1006.1mb 83f
4:50pm 7 16 mph 1006.2mb 83f
3:50pm 4 11 mph 1006.7mb 83f
2:50pm 7 11 mph 1007.4mb 83f
1:50pm 7 13 mph 1007.7mb 83f
12:50pm 4 13 mph 1008.2mb 82f
11:50am 4 9 mph 1008.3mb 80f
10:50am 4 11 mph 1008.2mb 80f
9:50am 4 7 mph 1008.5mb 77f
8:50am 2 9 mph 1008.5mb 75f
7:50am 4 7 mph 1008mb 75f
6:50am 4 9 mph 1007.7mb 74f
5:50am 7 16 mph 1007.8mb 75f
4:50am 7 16 mph 1008.1mb 75f
3:50am 4 9 mph 1008.5mb 74f
2:50am 4 9 mph 1009.4mb 74f
1:50am 4 7 mph 1010.3mb 73f
12:50am 2 7 mph 1011.2mb 72f
Mon 05/22 11:50pm 4 9 mph 1012.4mb 72f
10:50pm 2 4 mph 1013.1mb 71f
9:50pm 2 2 mph 1013.7mb 71f
8:50pm  -  2 mph 1012.9mb 72f
7:50pm  -  2 mph 1013.3mb 73f
6:50pm 2 4 mph 1013.9mb 74f
5:50pm  -  2 mph 1013.9mb 74f
4:50pm  -  2 mph 1014.7mb 74f
3:50pm 2 4 mph 1015.6mb 74f
2:50pm  -  0 mph 1016.2mb 74f